This is the latest recevied weather packets stored in our database for station/object DL3MEB-6. If no packets are shown the sender has not sent any weather packets the latest 10 day(s).
| Time | Temp. | Humidity | Pressure | Rain* | Wind** | Luminosity | Snow |
|---|---|---|---|---|---|---|---|
| 1787826846 | 26.67° C | 57% | 1013.3 hPa | 0 mm | - | - | - |
| 1787825942 | 26.11° C | 58% | 1013.4 hPa | 0 mm | - | - | - |
| 1787824124 | 24.44° C | 64% | 1013.5 hPa | 0 mm | - | - | - |
| 1787823225 | 24.44° C | 66% | 1013.7 hPa | 0 mm | - | - | - |
| 1787822315 | 23.33° C | 70% | 1013.5 hPa | 0 mm | - | - | - |
| 1787821405 | 22.78° C | 72% | 1013.6 hPa | 0 mm | - | - | - |
| 1787820496 | 22.22° C | 73% | 1013.6 hPa | 0 mm | - | - | - |
| 1787819596 | 21.67° C | 77% | 1013.7 hPa | 0 mm | - | - | - |
| 1787816876 | 20° C | 84% | 1013.7 hPa | 0 mm | - | - | - |
| 1787815967 | 19.44° C | 86% | 1013.8 hPa | 0 mm | - | - | - |
| 1787815063 | 18.89° C | 89% | 1013.6 hPa | 0 mm | - | - | - |
| 1787814150 | 18.33° C | 91% | 1013.6 hPa | 0 mm | - | - | - |
| 1787813248 | 17.78° C | 92% | 1013.7 hPa | 0 mm | - | - | - |
| 1787812337 | 17.22° C | 94% | 1013.5 hPa | 0 mm | - | - | - |
| 1787811074 | 16.67° C | 95% | 1013.3 hPa | 0 mm | - | - | - |
| 1787810168 | 16.67° C | 95% | 1013.6 hPa | 0 mm | - | - | - |
| 1787809262 | 16.11° C | 95% | 1013.7 hPa | 0 mm | - | - | - |
| 1787808360 | 16.11° C | 95% | 1013.6 hPa | 0 mm | - | - | - |
| 1787806550 | 16.11° C | 95% | 1013.5 hPa | 0 mm | - | - | - |
| 1787805642 | 16.11° C | 95% | 1013.4 hPa | 0 mm | - | - | - |
| 1787804739 | 16.11° C | 94% | 1013.2 hPa | 0 mm | - | - | - |
| 1787803827 | 15.56° C | 94% | 1013.4 hPa | 0 mm | - | - | - |
| 1787802921 | 15.56° C | 93% | 1013.4 hPa | 0 mm | - | - | - |
| 1787802020 | 16.11° C | 93% | 1013.5 hPa | 0 mm | - | - | - |
| 1787800209 | 16.11° C | 92% | 1013.6 hPa | 0 mm | - | - | - |
* Rain latest hour (hover to see other rain measurements)
** Current wind speed in m/s (hover to see current wind gust speed)